Pu Dun — XUUB9 — position and weather

sailwx.info

Track history (hours):
 
Tides and Currents Weather Stations Pressure Air Temp Water Temp Dewpoint Dewpoint Depression Visibility Wind Speed Wind Dir Waves Ship Positions

Pu Dun

Last reported at 2016-Feb-10 15:29 UTC. Time now 2016-Feb-12 18:14 UTC.
Position N 34°58' E 140°07'.

Length 75 m; draft 5.2 m.

Type: Cargo ship. MMSI: 515213000.

Date/timePositionNaut miles runAvg speedWind from/ knotsBaromVisibWave heightAir tempDewpointWater temp
2016-Feb-10 15:29N 34°58' E 140°07'  
2016-Feb-08 08:08N 35°55' E 140°40'1 0.1
2016-Feb-07 23:20N 35°56' E 140°39'0 0.0
2016-Feb-07 22:27N 35°56' E 140°39'4 4.6
2016-Feb-07 21:33N 35°59' E 140°42'0 0.1
2016-Feb-07 20:33N 35°59' E 140°42'0 0.0
2016-Feb-07 19:33N 35°59' E 140°42'0 0.0
2016-Feb-07 18:27N 35°59' E 140°42'0 0.0
2016-Feb-07 17:21N 35°59' E 140°42'0 0.0
2016-Feb-07 15:27N 35°59' E 140°42'0 0.0
2016-Feb-07 14:27N 35°59' E 140°42'0 0.0
2016-Feb-07 12:27N 35°59' E 140°42'0 0.0
2016-Feb-07 11:21N 35°59' E 140°42'63 7.9
2016-Feb-07 03:25N 35°01' E 140°12'264 9.0
2016-Feb-05 22:12N 34°06' E 134°59'711.1
2016-Feb-05 21:32N 34°14' E 134°59'10 9.7
2016-Feb-05 20:33N 34°23' E 134°60'1110.7
2016-Feb-05 19:32N 34°34' E 135°03'  
2016-Feb-02 05:33N 38°57' E 117°52'5 4.9
2016-Feb-02 04:29N 38°59' E 117°45'0 0.0
2016-Feb-02 03:29N 38°59' E 117°45'0 0.0
2016-Feb-02 02:11N 38°59' E 117°45'0 0.0
2016-Feb-02 01:29N 38°59' E 117°45'0 0.0
2016-Feb-02 00:29N 38°59' E 117°45'0 0.0
2016-Feb-01 23:05N 38°59' E 117°45'0 0.0
2016-Feb-01 22:29N 38°59' E 117°45'0 0.0
2016-Feb-01 21:29N 38°59' E 117°45'0 0.0
2016-Feb-01 20:29N 38°59' E 117°45'0 0.0
2016-Feb-01 19:29N 38°59' E 117°45'0 0.0
2016-Feb-01 18:29N 38°59' E 117°45'0 0.0
2016-Feb-01 17:29N 38°59' E 117°45'0 0.0
2016-Feb-01 16:05N 38°59' E 117°45'0 0.0
2016-Feb-01 15:11N 38°59' E 117°45'0 0.0
2016-Feb-01 14:23N 38°59' E 117°45'0 0.0
2016-Feb-01 13:29N 38°59' E 117°45'0 0.0
2016-Feb-01 11:11N 38°59' E 117°45'2 2.7
2016-Feb-01 10:33N 38°58' E 117°47'8 0.8
2016-Jan-31 23:24N 38°59' E 117°58'  
Track history (hours):
 
Tides and Currents Weather Stations Pressure Air Temp Water Temp Dewpoint Dewpoint Depression Visibility Wind Speed Wind Dir Waves Ship Positions

Pu Dun

Last reported at 2016-Feb-10 15:29 UTC. Time now 2016-Feb-12 18:14 UTC.
Position N 34°58' E 140°07'.

Length 75 m; draft 5.2 m.

Type: Cargo ship. MMSI: 515213000.

Date/timePositionNaut miles runAvg speedWind from/ knotsBaromVisibWave heightAir tempDewpointWater temp
2016-Feb-10 15:29N 34°58' E 140°07'  
2016-Feb-08 08:08N 35°55' E 140°40'1 0.1
2016-Feb-07 23:20N 35°56' E 140°39'0 0.0
2016-Feb-07 22:27N 35°56' E 140°39'4 4.6
2016-Feb-07 21:33N 35°59' E 140°42'0 0.1
2016-Feb-07 20:33N 35°59' E 140°42'0 0.0
2016-Feb-07 19:33N 35°59' E 140°42'0 0.0
2016-Feb-07 18:27N 35°59' E 140°42'0 0.0
2016-Feb-07 17:21N 35°59' E 140°42'0 0.0
2016-Feb-07 15:27N 35°59' E 140°42'0 0.0
2016-Feb-07 14:27N 35°59' E 140°42'0 0.0
2016-Feb-07 12:27N 35°59' E 140°42'0 0.0
2016-Feb-07 11:21N 35°59' E 140°42'63 7.9
2016-Feb-07 03:25N 35°01' E 140°12'264 9.0
2016-Feb-05 22:12N 34°06' E 134°59'711.1
2016-Feb-05 21:32N 34°14' E 134°59'10 9.7
2016-Feb-05 20:33N 34°23' E 134°60'1110.7
2016-Feb-05 19:32N 34°34' E 135°03'  
2016-Feb-02 05:33N 38°57' E 117°52'5 4.9
2016-Feb-02 04:29N 38°59' E 117°45'0 0.0
2016-Feb-02 03:29N 38°59' E 117°45'0 0.0
2016-Feb-02 02:11N 38°59' E 117°45'0 0.0
2016-Feb-02 01:29N 38°59' E 117°45'0 0.0
2016-Feb-02 00:29N 38°59' E 117°45'0 0.0
2016-Feb-01 23:05N 38°59' E 117°45'0 0.0
2016-Feb-01 22:29N 38°59' E 117°45'0 0.0
2016-Feb-01 21:29N 38°59' E 117°45'0 0.0
2016-Feb-01 20:29N 38°59' E 117°45'0 0.0
2016-Feb-01 19:29N 38°59' E 117°45'0 0.0
2016-Feb-01 18:29N 38°59' E 117°45'0 0.0
2016-Feb-01 17:29N 38°59' E 117°45'0 0.0
2016-Feb-01 16:05N 38°59' E 117°45'0 0.0
2016-Feb-01 15:11N 38°59' E 117°45'0 0.0
2016-Feb-01 14:23N 38°59' E 117°45'0 0.0
2016-Feb-01 13:29N 38°59' E 117°45'0 0.0
2016-Feb-01 11:11N 38°59' E 117°45'2 2.7
2016-Feb-01 10:33N 38°58' E 117°47'8 0.8
2016-Jan-31 23:24N 38°59' E 117°58'  

Dump ship's entire track history